Chadstone Weather > Observations for 08/09/20

Select Day:



Observations
Time Temp Hum DP Wind Gust Dir Rain >9am Press
C % C kph kph mm hPa
00:00 20.7 64 13.7 27.5 51.5 NE 0.0 1024.8
00:10 20.6 64 13.6 26.0 54.0 N 0.0 1024.5
00:20 20.6 64 13.6 27.6 52.6 N 0.0 1024.8
00:30 20.7 64 13.7 26.9 57.6 NNE 0.0 1024.7
00:40 20.7 63 13.4 27.2 55.1 N 0.0 1024.4
00:50 20.7 63 13.4 29.2 54.0 N 0.0 1023.9
01:00 20.7 63 13.4 31.3 50.0 NNW 0.0 1023.8
01:10 20.7 63 13.4 27.6 51.5 N 0.0 1024.1
01:20 20.7 63 13.4 26.3 49.0 NNW 0.0 1024.2
01:30 20.8 63 13.5 29.1 56.2 N 0.0 1023.9
01:40 20.8 63 13.5 23.5 54.0 NE 0.0 1023.9
01:50 20.9 63 13.6 26.0 58.7 NNW 0.0 1024.1
02:00 20.8 63 13.5 22.1 50.0 N 0.0 1023.8
02:10 20.8 63 13.5 21.9 46.4 NW 0.0 1023.7
02:20 20.8 63 13.5 28.8 46.4 N 0.0 1023.6
02:30 20.8 63 13.5 25.7 42.8 NNW 0.0 1023.7
02:40 20.8 63 13.5 23.9 41.8 N 0.0 1024.2
02:50 20.8 63 13.5 25.6 46.4 NNE 0.0 1024.0
03:00 20.7 63 13.4 23.9 43.9 N 0.0 1023.9
03:10 20.7 63 13.4 25.7 41.8 NNW 0.0 1023.8
03:20 20.6 63 13.3 20.6 36.7 N 0.0 1023.3
03:30 20.5 63 13.2 20.6 36.7 N 0.0 1023.1
03:40 20.4 63 13.1 16.4 36.7 N 0.0 1023.6
03:50 20.4 63 13.1 15.4 31.7 NNW 0.0 1023.8
04:00 20.4 63 13.1 12.0 25.6 N 0.0 1023.8
04:10 20.4 61 12.6 16.3 29.5 N 0.0 1023.5
04:20 20.4 61 12.6 13.6 25.6 NNW 0.0 1023.5
04:30 20.3 60 12.3 14.8 30.6 NNW 0.0 1023.3
04:40 20.4 58 11.9 16.4 34.2 N 0.0 1023.7
04:50 20.6 55 11.3 17.8 41.8 NNW 0.0 1023.7
05:00 20.6 54 11.0 18.6 41.8 N 0.0 1023.8
05:10 20.7 53 10.8 23.0 37.8 N 0.0 1023.5
05:20 20.7 53 10.8 24.4 46.4 NNW 0.0 1024.1
05:30 20.7 53 10.8 20.3 46.4 N 0.0 1024.1
05:40 20.6 53 10.7 18.4 39.2 NW 0.0 1024.1
05:50 20.6 52 10.4 22.4 43.9 NNW 0.0 1024.1
06:00 20.6 51 10.1 20.2 41.8 NNW 0.0 1024.1
06:10 20.5 51 10.0 20.6 46.4 N 0.0 1024.1
06:20 20.5 50 9.7 22.0 51.5 N 0.0 1024.1
06:30 20.5 50 9.7 20.1 39.2 NW 0.0 1024.1
06:40 20.5 49 9.4 19.9 37.8 N 0.0 1024.2
06:50 20.5 48 9.1 18.7 40.3 N 0.0 1024.1
07:00 20.5 49 9.4 18.4 33.1 N 0.0 1024.9
07:10 20.5 49 9.4 19.7 33.1 N 0.0 1024.9
07:20 20.6 49 9.5 21.0 45.4 NNW 0.0 1025.1
07:30 20.7 49 9.6 22.3 40.3 NNW 0.0 1025.0
07:40 20.7 50 9.9 21.8 41.8 NNW 0.0 1025.3
07:50 20.8 51 10.3 22.3 49.0 N 0.0 1025.3
08:00 21.0 51 10.5 20.5 40.3 NNW 0.0 1025.5
08:10 21.1 52 10.9 20.1 43.9 WNW 0.0 1025.9
08:20 20.9 54 11.3 17.1 35.6 NNW 0.0 1025.8
08:30 20.8 55 11.4 17.2 35.6 NW 0.0 1025.6
08:40 20.8 55 11.4 18.9 37.8 NNW 0.0 1025.8
08:50 20.9 56 11.8 19.4 31.7 NW 0.0 1025.7
09:00 21.0 55 11.6 21.4 39.2 NNW 0.0 1025.8
09:10 21.1 56 12.0 15.8 29.5 NNW 0.0 1026.0
09:20 21.2 56 12.1 17.8 39.2 NNW 0.0 1026.0
09:30 21.4 57 12.5 11.5 20.9 NNW 0.0 1026.1
09:40 21.4 58 12.8 13.7 30.6 NNW 0.0 1026.3
09:50 21.2 59 12.9 18.6 36.7 NNW 0.0 1026.2
10:00 21.0 61 13.2 15.3 29.5 NW 0.0 1026.5
10:10 20.7 63 13.4 14.4 33.1 NNW 0.0 1026.4
10:20 20.6 63 13.3 14.2 39.2 NW 0.0 1026.5
10:30 20.5 64 13.5 14.5 39.2 NW 0.0 1026.6
10:40 20.3 64 13.3 17.0 29.5 NW 0.0 1026.5
10:50 20.3 64 13.3 16.5 35.6 NNW 0.0 1027.2
11:00 20.2 65 13.4 13.6 28.1 NW 0.0 1027.5
11:10 20.1 65 13.3 10.2 18.4 WNW 0.0 1027.6
11:20 20.0 65 13.2 13.3 27.0 NNW 0.0 1027.5
11:30 19.9 66 13.4 13.7 27.0 NNW 0.0 1027.6
11:40 19.9 67 13.6 15.6 27.0 NNW 0.0 1027.8
11:50 19.7 69 13.9 15.8 33.1 N 0.0 1027.9
12:00 19.3 71 13.9 14.0 29.5 N 0.0 1027.5
12:10 18.9 75 14.4 14.5 28.1 NNW 0.6 1027.3
12:20 18.4 78 14.5 15.6 29.5 NNE 0.9 1026.5
12:30 18.2 79 14.5 12.8 25.6 NNW 0.9 1026.5
12:40 18.1 80 14.6 12.3 29.5 NW 0.9 1027.0
12:50 18.1 81 14.8 7.5 24.5 NW 1.2 1027.5
13:00 18.0 83 15.1 4.9 13.3 WNW 1.5 1027.7
13:10 18.0 85 15.5 2.9 8.6 WSW 1.5 1028.0
13:20 17.7 84 15.0 2.4 11.2 SW 1.5 1027.8
13:30 17.0 81 13.7 3.6 13.3 SW 1.5 1027.9
13:40 16.6 81 13.3 0.8 8.6 SW 1.5 1028.2
13:50 16.5 81 13.2 1.3 7.2 SSW 1.5 1028.2
14:00 16.3 79 12.7 3.9 14.8 W 1.5 1028.1
14:10 16.4 78 12.6 4.8 14.8 SW 1.5 1028.3
14:20 16.6 78 12.8 3.8 14.8 SW 1.5 1028.6
14:30 16.8 77 12.8 5.0 12.2 SW 1.5 1028.8
14:40 16.8 77 12.8 5.1 13.3 SW 1.5 1029.0
14:50 16.8 77 12.8 5.3 14.8 WSW 1.5 1029.1
15:00 16.6 77 12.6 4.6 15.8 WSW 1.5 1029.2
15:10 16.5 78 12.7 3.8 15.8 SW 1.5 1029.4
15:20 16.6 78 12.8 5.0 9.7 SSW 1.5 1029.7
15:30 16.5 78 12.7 4.2 17.3 SW 1.5 1029.6
15:40 16.6 78 12.8 3.2 13.3 S 1.5 1029.8
15:50 16.6 77 12.6 5.1 13.3 SW 1.5 1029.9
16:00 16.6 77 12.6 4.8 15.8 W 1.5 1030.0
16:10 16.8 77 12.8 3.1 11.2 SSW 1.5 1029.9
16:20 16.8 77 12.8 3.0 11.2 SW 1.5 1030.1
16:30 16.7 77 12.7 4.1 14.8 SSW 1.5 1030.4
16:40 16.6 77 12.6 4.2 12.2 SW 1.5 1030.7
16:50 16.6 77 12.6 3.8 9.7 WSW 1.5 1030.6
17:00 16.6 77 12.6 2.6 13.3 WNW 1.5 1030.7
17:10 16.7 77 12.7 1.8 8.6 SW 1.5 1031.1
17:20 16.6 76 12.4 3.1 9.7 ESE 1.5 1031.5
17:30 16.4 75 12.0 3.7 17.3 SW 1.5 1031.5
17:40 15.9 77 11.9 2.1 9.7 S 1.5 1031.9
17:50 15.5 78 11.7 4.4 12.2 S 1.5 1031.9
18:00 15.1 79 11.5 7.4 15.8 SSE 1.5 1032.0
18:10 14.8 80 11.4 6.9 19.4 S 1.5 1032.3
18:20 14.6 77 10.6 6.1 17.3 SSE 1.5 1032.6
18:30 14.5 76 10.3 3.8 8.6 S 1.5 1032.8
18:40 14.4 76 10.2 4.5 17.3 SSE 1.5 1033.0
18:50 14.3 75 9.9 5.3 12.2 SSE 1.5 1033.3
19:00 14.2 75 9.8 5.4 13.3 SE 1.5 1033.6
19:10 14.0 75 9.6 4.6 15.8 SE 1.5 1033.6
19:20 13.9 76 9.7 4.1 14.8 SSE 1.5 1033.8
19:30 13.8 77 9.8 4.2 8.6 S 1.5 1034.0
19:40 13.7 77 9.7 4.0 11.2 S 1.5 1034.1
19:50 13.6 78 9.8 1.8 8.6 S 1.5 1034.4
20:00 13.6 78 9.8 3.2 11.2 SW 1.5 1034.6
20:10 13.6 79 10.0 2.4 7.2 ESE 1.5 1034.7
20:20 13.5 79 9.9 2.6 8.6 SSE 1.5 1035.0
20:30 13.5 80 10.1 3.7 9.7 S 1.5 1035.0
20:40 13.4 80 10.0 2.5 6.1 S 1.5 1035.0
20:50 13.4 81 10.2 3.2 8.6 S 1.5 1035.2
21:00 13.2 81 10.0 2.5 6.1 SE 1.5 1035.3
21:10 13.2 82 10.2 2.9 6.1 SSE 1.5 1035.5
21:20 13.1 82 10.1 1.0 3.6 SSE 1.5 1035.5
21:30 13.0 82 10.0 1.2 3.6 SSE 1.5 1035.6
21:40 12.8 83 10.0 0.3 2.5 SE 1.5 1035.8
21:50 12.7 83 9.9 0.4 3.6 SSW 1.5 1035.7
22:00 12.7 83 9.9 0.0 0.0 N 1.5 1035.8
22:10 12.6 84 10.0 0.0 1.1 S 1.5 1035.8
22:20 12.5 84 9.9 0.1 2.5 W 1.5 1035.8
22:30 12.4 84 9.8 0.3 2.5 ENE 1.5 1036.0
22:40 12.3 84 9.7 0.0 0.0 N 1.5 1036.1
22:50 12.1 85 9.7 0.0 0.0 N 1.5 1036.3
23:00 12.0 85 9.6 0.0 0.0 N 1.5 1036.3
23:10 11.9 86 9.6 0.0 0.0 N 1.5 1036.3
23:20 11.8 86 9.5 0.0 0.0 N 1.5 1036.6
23:30 11.7 87 9.6 0.0 1.1 N 1.5 1036.6
23:40 11.7 87 9.6 0.0 1.1 N 1.5 1036.4
23:50 11.7 87 9.6 0.1 3.6 S 1.5 1036.6